createdAt,value
2018-12-21T00:00:55.247Z,0.97
2018-12-21T00:03:24.067Z,1.20
2018-12-21T00:05:52.871Z,1.37
2018-12-21T00:08:21.600Z,1.03
2018-12-21T00:10:56.507Z,1.20
2018-12-21T00:13:25.228Z,1.30
2018-12-21T00:15:53.973Z,1.20
2018-12-21T00:18:22.908Z,1.10
2018-12-21T00:20:57.780Z,1.20
2018-12-21T00:23:26.516Z,1.00
2018-12-21T00:25:56.170Z,0.80
2018-12-21T00:28:24.915Z,1.17
2018-12-21T00:30:59.118Z,0.60
2018-12-21T00:33:35.404Z,1.63
2018-12-21T00:36:09.655Z,1.50
2018-12-21T00:38:43.510Z,1.10
2018-12-21T00:41:14.402Z,0.90
2018-12-21T00:43:52.479Z,0.80
2018-12-21T00:46:27.976Z,0.87
2018-12-21T00:48:56.687Z,1.17
2018-12-21T00:51:30.151Z,0.93
2018-12-21T00:53:56.094Z,1.10
2018-12-21T00:56:24.598Z,1.63
2018-12-21T00:58:53.485Z,1.53
2018-12-21T01:01:23.062Z,1.17
2018-12-21T01:03:52.343Z,0.83
2018-12-21T01:06:20.801Z,0.93
2018-12-21T01:08:49.560Z,0.70
2018-12-21T01:11:24.539Z,1.13
2018-12-21T01:13:53.387Z,1.33
2018-12-21T01:16:22.086Z,0.90
2018-12-21T01:18:51.416Z,1.10
2018-12-21T01:21:20.042Z,1.23
2018-12-21T01:23:48.725Z,1.03
2018-12-21T01:26:17.483Z,1.27
2018-12-21T01:28:46.188Z,0.97
2018-12-21T01:31:14.878Z,1.30
2018-12-21T01:33:43.582Z,1.17
2018-12-21T01:36:12.327Z,0.77
2018-12-21T01:38:41.100Z,1.20
2018-12-21T01:41:09.825Z,1.07
2018-12-21T01:43:39.388Z,0.87
2018-12-21T01:46:08.159Z,1.27
2018-12-21T01:48:37.551Z,1.40
2018-12-21T01:51:07.304Z,1.13
2018-12-21T01:53:36.018Z,1.00
2018-12-21T01:56:04.910Z,1.00
2018-12-21T01:58:33.603Z,1.17
2018-12-21T02:01:02.376Z,1.27
2018-12-21T02:03:31.334Z,0.67
2018-12-21T02:06:06.312Z,0.93
2018-12-21T02:08:35.012Z,1.20
2018-12-21T02:11:03.715Z,1.33
2018-12-21T02:13:32.396Z,1.27
2018-12-21T02:16:01.132Z,0.80
2018-12-21T02:18:29.831Z,1.00
2018-12-21T02:20:58.759Z,1.17
2018-12-21T02:23:27.227Z,1.10
2018-12-21T02:26:01.915Z,1.33
2018-12-21T02:28:30.601Z,1.80
2018-12-21T02:30:59.300Z,0.93
2018-12-21T02:33:27.755Z,1.63
2018-12-21T02:35:56.381Z,1.03
2018-12-21T02:38:25.191Z,1.30
2018-12-21T02:40:54.585Z,1.30
2018-12-21T02:43:23.210Z,1.07
2018-12-21T02:45:51.837Z,0.90
2018-12-21T02:48:20.611Z,0.80
2018-12-21T02:50:49.427Z,0.93
2018-12-21T02:53:18.120Z,0.93
2018-12-21T02:55:46.835Z,1.40
2018-12-21T02:58:16.758Z,1.17
2018-12-21T03:00:45.487Z,1.30
2018-12-21T03:03:14.224Z,0.90
2018-12-21T03:05:42.904Z,1.47
2018-12-21T03:08:11.651Z,1.20
2018-12-21T03:10:46.615Z,1.30
2018-12-21T03:13:15.308Z,1.33
2018-12-21T03:15:44.008Z,1.27
2018-12-21T03:18:12.739Z,1.50
2018-12-21T03:20:47.733Z,1.17
2018-12-21T03:23:16.548Z,1.00
2018-12-21T03:25:45.324Z,1.30
2018-12-21T03:28:14.052Z,1.60
2018-12-21T03:30:42.813Z,1.07
2018-12-21T03:33:11.538Z,1.00
2018-12-21T03:35:42.304Z,0.90
2018-12-21T03:38:11.033Z,1.30
2018-12-21T03:40:39.723Z,1.33
2018-12-21T03:43:14.333Z,0.93
2018-12-21T03:45:42.706Z,0.80
2018-12-21T03:48:11.372Z,1.00
2018-12-21T03:50:40.057Z,1.30
2018-12-21T03:53:08.755Z,0.80
2018-12-21T03:55:37.548Z,1.27
2018-12-21T03:58:06.269Z,1.10
2018-12-21T04:00:35.663Z,0.97
2018-12-21T04:03:10.474Z,1.10
2018-12-21T04:05:39.161Z,0.97
2018-12-21T04:08:07.866Z,0.80
2018-12-21T04:10:36.390Z,0.70
2018-12-21T04:13:05.118Z,1.03
2018-12-21T04:15:40.758Z,0.70
2018-12-21T04:18:09.452Z,1.00
2018-12-21T04:20:38.132Z,0.70
2018-12-21T04:23:12.842Z,0.67
2018-12-21T04:25:41.636Z,0.70
2018-12-21T04:28:16.509Z,0.73
2018-12-21T04:30:45.287Z,0.70
2018-12-21T04:33:13.996Z,0.70
2018-12-21T04:35:42.681Z,0.90
2018-12-21T04:38:11.468Z,0.63
2018-12-21T04:40:44.175Z,0.50
2018-12-21T04:43:18.997Z,0.70
2018-12-21T04:45:48.640Z,0.50
2018-12-21T04:48:24.228Z,0.50
2018-12-21T04:50:52.995Z,0.70
2018-12-21T04:53:21.695Z,0.40
2018-12-21T04:55:50.464Z,0.60
2018-12-21T04:58:19.285Z,0.40
2018-12-21T05:00:49.035Z,0.90
2018-12-21T05:03:17.723Z,0.50
2018-12-21T05:05:46.424Z,0.50
2018-12-21T05:08:15.120Z,0.50
2018-12-21T05:10:43.583Z,0.60
2018-12-21T05:13:18.437Z,0.70
2018-12-21T05:15:47.175Z,0.60
2018-12-21T05:18:17.659Z,0.80
2018-12-21T05:20:47.260Z,0.77
2018-12-21T05:23:16.016Z,0.40
2018-12-21T05:25:44.774Z,0.43
2018-12-21T05:28:13.524Z,0.40
2018-12-21T05:30:42.212Z,0.70
2018-12-21T05:33:10.895Z,0.60
2018-12-21T05:35:41.400Z,0.50
2018-12-21T05:38:10.109Z,0.53
2018-12-21T05:40:38.911Z,0.50
2018-12-21T05:43:08.582Z,0.47
2018-12-21T05:45:43.512Z,0.50
2018-12-21T05:48:12.216Z,0.63
2018-12-21T05:50:47.177Z,0.80
2018-12-21T05:53:15.919Z,0.60
2018-12-21T05:55:44.615Z,0.57
2018-12-21T05:58:13.307Z,0.50
2018-12-21T06:00:42.088Z,0.47
2018-12-21T06:03:10.773Z,0.40
2018-12-21T06:05:40.316Z,0.43
2018-12-21T06:08:08.919Z,0.50
2018-12-21T06:10:43.964Z,0.73
2018-12-21T06:13:12.652Z,0.53
2018-12-21T06:15:41.415Z,0.40
2018-12-21T06:18:10.116Z,0.40
2018-12-21T06:20:39.619Z,0.50
2018-12-21T06:23:14.946Z,0.60
2018-12-21T06:25:43.725Z,0.50
2018-12-21T06:28:18.856Z,0.50
2018-12-21T06:30:47.541Z,0.30
2018-12-21T06:33:17.100Z,0.60
2018-12-21T06:35:46.639Z,0.40
2018-12-21T06:38:15.468Z,0.50
2018-12-21T06:40:44.339Z,0.70
2018-12-21T06:43:13.111Z,0.60
2018-12-21T06:45:42.057Z,0.40
2018-12-21T06:48:10.786Z,0.60
2018-12-21T06:50:39.605Z,0.60
2018-12-21T06:53:08.851Z,0.63
2018-12-21T06:55:37.535Z,0.60
2018-12-21T06:58:06.235Z,0.60
2018-12-21T07:00:34.923Z,0.57
2018-12-21T07:03:03.683Z,0.77
2018-12-21T07:05:32.447Z,0.50
2018-12-21T07:08:07.414Z,0.57
2018-12-21T07:10:36.091Z,0.60
2018-12-21T07:13:04.863Z,0.50
2018-12-21T07:15:34.395Z,0.60
2018-12-21T07:18:04.996Z,0.53
2018-12-21T07:20:39.783Z,0.80
2018-12-21T07:23:08.734Z,0.60
2018-12-21T07:25:38.306Z,0.47
2018-12-21T07:28:07.079Z,0.60
2018-12-21T07:30:35.872Z,0.40
2018-12-21T07:33:10.763Z,0.60
2018-12-21T07:35:39.251Z,0.60
2018-12-21T07:38:07.907Z,1.60
2018-12-21T07:40:36.788Z,0.60
2018-12-21T07:43:11.286Z,0.90
2018-12-21T07:45:39.880Z,1.00
2018-12-21T07:48:14.854Z,0.80
2018-12-21T07:50:43.592Z,0.87
2018-12-21T07:53:12.331Z,1.70
2018-12-21T07:55:47.284Z,0.80
2018-12-21T07:58:22.138Z,1.90
2018-12-21T08:00:57.179Z,1.83
2018-12-21T08:03:26.683Z,2.00
2018-12-21T08:05:56.163Z,0.67
2018-12-21T08:08:31.011Z,0.50
2018-12-21T08:11:05.940Z,0.60
2018-12-21T08:13:41.073Z,0.60
2018-12-21T08:16:09.535Z,0.40
2018-12-21T08:18:38.141Z,0.67
2018-12-21T08:21:06.931Z,0.63
2018-12-21T08:23:43.995Z,1.00
2018-12-21T08:26:12.232Z,0.60
2018-12-21T08:28:46.938Z,0.50
2018-12-21T08:31:15.648Z,0.60
2018-12-21T08:33:50.378Z,0.50
2018-12-21T08:36:18.988Z,0.40
2018-12-21T08:38:53.996Z,0.33
2018-12-21T08:41:23.339Z,0.60
2018-12-21T08:43:51.931Z,0.50
2018-12-21T08:46:26.835Z,0.50
2018-12-21T08:48:55.297Z,0.50
2018-12-21T08:51:29.931Z,0.80
2018-12-21T08:54:04.782Z,1.00
2018-12-21T08:56:33.460Z,0.50
2018-12-21T08:59:02.220Z,0.60
2018-12-21T09:01:37.229Z,0.37
2018-12-21T09:04:05.869Z,0.50
2018-12-21T09:06:34.665Z,0.40
2018-12-21T09:09:04.683Z,0.30
2018-12-21T09:11:33.107Z,0.60
2018-12-21T09:14:01.704Z,0.60
2018-12-21T09:16:30.480Z,0.57
2018-12-21T09:18:59.196Z,0.40
2018-12-21T09:21:27.968Z,0.40
2018-12-21T09:24:02.663Z,0.53
2018-12-21T09:26:31.344Z,0.63
2018-12-21T09:28:59.800Z,0.70
2018-12-21T09:31:34.735Z,0.40
2018-12-21T09:34:03.593Z,0.60
2018-12-21T09:39:13.338Z,0.60
2018-12-21T09:41:42.016Z,0.50
2018-12-21T09:44:16.863Z,0.60
2018-12-21T09:46:51.635Z,0.50
2018-12-21T09:49:26.555Z,0.40
2018-12-21T09:52:01.347Z,0.30
2018-12-21T09:54:30.023Z,0.50
2018-12-21T09:56:58.719Z,0.40
2018-12-21T09:59:27.400Z,0.37
2018-12-21T10:02:02.324Z,0.60
2018-12-21T10:04:37.014Z,0.50
2018-12-21T10:07:05.374Z,0.40
2018-12-21T10:09:33.951Z,0.30
2018-12-21T10:12:02.488Z,0.40
2018-12-21T10:14:31.075Z,0.60
2018-12-21T10:16:59.615Z,0.57
2018-12-21T10:19:28.198Z,0.70
2018-12-21T10:21:56.887Z,0.50
2018-12-21T10:24:25.335Z,0.60
2018-12-21T10:26:53.928Z,0.50
2018-12-21T10:29:22.688Z,0.50
2018-12-21T10:31:51.447Z,0.40
2018-12-21T10:34:20.122Z,0.30
2018-12-21T10:36:54.979Z,0.40
2018-12-21T10:39:29.739Z,0.43
2018-12-21T10:41:58.195Z,0.53
2018-12-21T10:44:33.055Z,0.40
2018-12-21T10:47:01.506Z,0.30
2018-12-21T10:49:32.068Z,0.30
2018-12-21T10:52:06.891Z,0.40
2018-12-21T10:54:35.345Z,0.63
2018-12-21T10:57:10.220Z,0.50
2018-12-21T10:59:43.411Z,0.77
2018-12-21T11:02:15.753Z,0.40
2018-12-21T11:04:44.473Z,0.50
2018-12-21T11:07:12.935Z,0.60
2018-12-21T11:09:41.308Z,0.50
2018-12-21T11:12:09.675Z,0.70
2018-12-21T11:14:38.831Z,0.40
2018-12-21T11:17:07.214Z,0.20
2018-12-21T11:19:35.824Z,0.40
2018-12-21T11:22:04.504Z,0.60
2018-12-21T11:24:39.006Z,0.40
2018-12-21T11:27:13.644Z,0.40
2018-12-21T11:29:42.223Z,0.43
2018-12-21T11:32:17.183Z,0.40
2018-12-21T11:34:45.879Z,0.40
2018-12-21T11:37:14.571Z,0.50
2018-12-21T11:39:43.031Z,0.40
2018-12-21T11:42:17.595Z,0.50
2018-12-21T11:44:46.205Z,0.40
2018-12-21T11:47:20.994Z,0.70
2018-12-21T11:49:49.719Z,0.50
2018-12-21T11:52:18.467Z,0.50
2018-12-21T11:54:53.192Z,0.40
2018-12-21T11:57:21.943Z,0.40
2018-12-21T11:59:50.653Z,0.40
2018-12-21T12:02:25.672Z,0.43
2018-12-21T12:04:54.364Z,0.37
2018-12-21T12:07:23.048Z,0.20
2018-12-21T12:09:57.947Z,0.40
2018-12-21T12:12:27.211Z,0.43
2018-12-21T12:14:56.604Z,0.40
2018-12-21T12:17:25.058Z,0.40
2018-12-21T12:19:53.643Z,0.50
2018-12-21T12:22:22.093Z,0.30
2018-12-21T12:24:56.738Z,0.40
2018-12-21T12:27:25.457Z,0.40
2018-12-21T12:29:54.951Z,0.30
2018-12-21T12:32:24.519Z,0.40
2018-12-21T12:34:52.980Z,0.40
2018-12-21T12:37:21.349Z,0.33
2018-12-21T12:39:50.084Z,0.40
2018-12-21T12:42:18.531Z,0.50
2018-12-21T12:44:47.133Z,0.40
2018-12-21T12:47:22.329Z,0.50
2018-12-21T12:49:57.246Z,0.50
2018-12-21T12:52:25.943Z,0.40
2018-12-21T12:55:02.733Z,0.30
2018-12-21T12:57:29.264Z,0.40
2018-12-21T12:59:57.951Z,0.43
2018-12-21T13:02:26.619Z,0.50
2018-12-21T13:04:55.391Z,0.40
2018-12-21T13:07:30.252Z,0.40
2018-12-21T13:09:59.007Z,0.40
2018-12-21T13:12:27.683Z,0.70
2018-12-21T13:14:56.451Z,0.60
2018-12-21T13:17:31.044Z,0.50
2018-12-21T13:19:59.640Z,0.73
2018-12-21T13:22:29.139Z,0.30
2018-12-21T13:25:11.375Z,0.40
2018-12-21T13:27:35.059Z,0.47
2018-12-21T13:30:08.473Z,0.90
2018-12-21T13:32:38.166Z,0.40
2018-12-21T13:35:07.555Z,0.50
2018-12-21T13:37:42.327Z,0.50
2018-12-21T13:40:12.215Z,0.60
2018-12-21T13:42:40.660Z,0.40
2018-12-21T13:45:10.599Z,0.70
2018-12-21T13:47:45.072Z,0.80
2018-12-21T13:50:15.067Z,0.87
2018-12-21T13:52:49.706Z,0.40
2018-12-21T13:55:20.557Z,0.60
2018-12-21T13:57:55.050Z,0.60
2018-12-21T14:00:23.864Z,0.57
2018-12-21T14:02:52.535Z,0.40
2018-12-21T14:05:20.983Z,0.40
2018-12-21T14:07:49.338Z,0.47
2018-12-21T14:10:17.704Z,0.57
2018-12-21T14:12:53.108Z,0.40
2018-12-21T14:15:28.004Z,0.40
2018-12-21T14:17:56.683Z,0.40
2018-12-21T14:20:25.360Z,0.50
2018-12-21T14:22:54.035Z,0.50
2018-12-21T14:25:28.830Z,0.40
2018-12-21T14:27:53.417Z,0.50
2018-12-21T14:30:22.208Z,0.50
2018-12-21T14:32:51.623Z,0.30
2018-12-21T14:35:25.091Z,0.60
2018-12-21T14:37:59.595Z,0.47
2018-12-21T14:40:28.255Z,0.50
2018-12-21T14:42:56.938Z,0.50
2018-12-21T14:45:31.915Z,0.70
2018-12-21T14:48:06.579Z,0.50
2018-12-21T14:50:35.240Z,0.60
2018-12-21T14:53:04.035Z,0.53
2018-12-21T14:55:37.466Z,0.40
2018-12-21T14:58:09.592Z,0.50
2018-12-21T15:00:44.580Z,0.60
2018-12-21T15:03:19.263Z,0.50
2018-12-21T15:05:53.680Z,0.53
2018-12-21T15:08:28.088Z,0.50
2018-12-21T15:10:56.806Z,0.87
2018-12-21T15:13:26.373Z,0.40
2018-12-21T15:16:01.312Z,1.20
2018-12-21T15:18:29.998Z,0.80
2018-12-21T15:21:04.643Z,0.83
2018-12-21T15:23:39.676Z,0.67
2018-12-21T15:26:08.367Z,0.70
2018-12-21T15:28:43.432Z,0.83
2018-12-21T15:31:12.924Z,0.47
2018-12-21T15:33:41.680Z,0.90
2018-12-21T15:36:10.375Z,0.80
2018-12-21T15:38:45.228Z,0.80
2018-12-21T15:41:20.277Z,0.70
2018-12-21T15:43:48.980Z,1.20
2018-12-21T15:46:17.541Z,0.77
2018-12-21T15:48:45.980Z,0.90
2018-12-21T15:51:14.623Z,1.00
2018-12-21T15:53:43.495Z,0.90
2018-12-21T15:56:11.975Z,0.77
2018-12-21T15:58:40.598Z,1.57
2018-12-21T16:01:09.325Z,0.90
2018-12-21T16:03:44.359Z,1.30
2018-12-21T16:06:12.872Z,1.17
2018-12-21T16:08:44.499Z,1.33
2018-12-21T16:11:13.912Z,1.30
2018-12-21T16:13:49.010Z,1.00
2018-12-21T16:16:17.476Z,0.90
2018-12-21T16:18:46.329Z,1.50
2018-12-21T16:21:14.795Z,0.97
2018-12-21T16:23:49.735Z,1.30
2018-12-21T16:26:24.616Z,1.60
2018-12-21T16:28:53.315Z,1.07
2018-12-21T16:31:22.008Z,1.20
2018-12-21T16:33:50.476Z,1.30
2018-12-21T16:36:25.071Z,1.30
2018-12-21T16:38:53.507Z,1.23
2018-12-21T16:41:28.386Z,1.43
2018-12-21T16:43:57.983Z,0.77
2018-12-21T16:46:26.703Z,1.20
2018-12-21T16:48:56.280Z,1.53
2018-12-21T16:51:31.221Z,1.30
2018-12-21T16:54:00.047Z,0.90
2018-12-21T16:56:28.753Z,1.10
2018-12-21T16:58:57.500Z,1.40
2018-12-21T17:01:26.348Z,1.20
2018-12-21T17:03:55.068Z,2.20
2018-12-21T17:06:31.144Z,0.90
2018-12-21T17:09:07.671Z,2.00
2018-12-21T17:11:36.368Z,0.70
2018-12-21T17:14:05.204Z,1.07
2018-12-21T17:16:40.144Z,1.00
2018-12-21T17:19:10.766Z,1.40
2018-12-21T17:21:39.433Z,1.10
2018-12-21T17:24:08.947Z,0.67
2018-12-21T17:26:37.735Z,1.37
2018-12-21T17:29:06.525Z,1.63
2018-12-21T17:31:35.414Z,1.80
2018-12-21T17:34:04.211Z,1.50
2018-12-21T17:36:33.051Z,1.27
2018-12-21T17:39:01.872Z,2.60
2018-12-21T17:41:36.760Z,2.03
2018-12-21T17:44:05.727Z,2.60
2018-12-21T17:46:34.427Z,2.50
2018-12-21T17:49:09.472Z,2.00
2018-12-21T17:51:38.539Z,2.17
2018-12-21T17:54:14.831Z,2.13
2018-12-21T17:56:43.171Z,2.10
2018-12-21T17:59:14.390Z,1.90
2018-12-21T18:01:49.551Z,1.47
2018-12-21T18:04:29.156Z,2.30
2018-12-21T18:06:57.703Z,2.00
2018-12-21T18:09:29.886Z,1.77
2018-12-21T18:11:58.624Z,1.40
2018-12-21T18:14:27.141Z,2.10
2018-12-21T18:16:55.729Z,1.47
2018-12-21T18:19:24.364Z,2.10
2018-12-21T18:22:06.828Z,1.57
2018-12-21T18:24:35.298Z,2.53
2018-12-21T18:27:03.909Z,2.20
2018-12-21T18:29:34.083Z,1.47
2018-12-21T18:32:04.291Z,1.70
2018-12-21T18:34:37.124Z,1.63
2018-12-21T18:37:11.751Z,1.70
2018-12-21T18:39:40.133Z,1.63
2018-12-21T18:42:14.607Z,2.57
2018-12-21T18:44:43.060Z,2.37
2018-12-21T18:47:17.960Z,2.97
2018-12-21T18:49:46.471Z,5.03
2018-12-21T18:52:16.018Z,2.50
2018-12-21T18:54:44.735Z,3.33
2018-12-21T18:57:20.512Z,2.03
2018-12-21T18:59:49.275Z,1.53
2018-12-21T19:02:17.979Z,2.60
2018-12-21T19:04:46.795Z,1.97
2018-12-21T19:07:15.291Z,3.57
2018-12-21T19:09:43.899Z,2.40
2018-12-21T19:12:18.972Z,4.15
2018-12-21T19:14:47.393Z,2.57
2018-12-21T19:17:22.211Z,2.73
2018-12-21T19:19:57.067Z,3.00
2018-12-21T19:22:25.774Z,3.37
2018-12-21T19:25:00.567Z,1.80
2018-12-21T19:27:29.377Z,3.13
2018-12-21T19:29:58.069Z,4.23
2018-12-21T19:32:32.976Z,2.57
2018-12-21T19:35:01.904Z,3.90
2018-12-21T19:37:30.709Z,4.07
2018-12-21T19:39:59.621Z,5.20
2018-12-21T19:42:28.373Z,3.07
2018-12-21T19:44:57.191Z,2.80
2018-12-21T19:47:28.904Z,3.93
2018-12-21T19:50:04.490Z,5.97
2018-12-21T19:52:33.179Z,3.27
2018-12-21T19:55:09.639Z,2.83
2018-12-21T19:57:38.331Z,3.97
2018-12-21T20:00:08.059Z,3.33
2018-12-21T20:02:42.867Z,4.63
2018-12-21T20:05:17.460Z,3.40
2018-12-21T20:07:46.072Z,3.43
2018-12-21T20:10:14.764Z,3.00
2018-12-21T20:12:49.502Z,2.17
2018-12-21T20:15:18.159Z,2.87
2018-12-21T20:17:53.021Z,3.33
2018-12-21T20:20:27.892Z,2.70
2018-12-21T20:22:56.628Z,2.00
2018-12-21T20:25:25.322Z,3.80
2018-12-21T20:27:53.887Z,3.50
2018-12-21T20:30:28.672Z,2.60
2018-12-21T20:33:03.843Z,2.80
2018-12-21T20:35:32.795Z,3.20
2018-12-21T20:38:07.457Z,2.00
2018-12-21T20:40:36.251Z,3.47
2018-12-21T20:43:05.141Z,1.93
2018-12-21T20:45:39.567Z,2.60
2018-12-21T20:48:08.160Z,2.87
2018-12-21T20:50:42.951Z,2.00
2018-12-21T20:53:17.783Z,2.23
2018-12-21T20:55:48.354Z,2.30
2018-12-21T20:58:26.176Z,3.23
2018-12-21T21:00:54.950Z,3.37
2018-12-21T21:03:29.976Z,3.40
2018-12-21T21:05:58.848Z,3.03
2018-12-21T21:08:27.263Z,3.33
2018-12-21T21:10:55.870Z,3.87
2018-12-21T21:13:24.574Z,3.30
2018-12-21T21:15:53.268Z,3.20
2018-12-21T21:18:28.075Z,3.53
2018-12-21T21:20:56.773Z,3.67
2018-12-21T21:23:31.831Z,2.53
2018-12-21T21:26:01.310Z,2.70
2018-12-21T21:28:30.115Z,3.30
2018-12-21T21:31:05.047Z,3.33
2018-12-21T21:33:39.914Z,3.30
2018-12-21T21:36:08.700Z,3.43
2018-12-21T21:38:37.463Z,2.77
2018-12-21T21:41:06.968Z,3.27
2018-12-21T21:43:35.655Z,3.27
2018-12-21T21:46:04.456Z,3.13
2018-12-21T21:48:39.375Z,3.17
2018-12-21T21:51:08.118Z,2.57
2018-12-21T21:53:36.800Z,2.60
2018-12-21T21:56:11.697Z,2.17
2018-12-21T21:58:41.343Z,3.13
2018-12-21T22:01:10.067Z,2.97
2018-12-21T22:03:38.875Z,3.13
2018-12-21T22:06:07.726Z,2.80
2018-12-21T22:08:36.560Z,2.80
2018-12-21T22:11:05.243Z,2.80
2018-12-21T22:13:33.927Z,2.90
2018-12-21T22:16:02.652Z,3.40
2018-12-21T22:18:37.390Z,3.10
2018-12-21T22:21:06.112Z,3.03
2018-12-21T22:23:34.828Z,2.33
2018-12-21T22:26:09.645Z,2.83
2018-12-21T22:28:38.331Z,2.90
2018-12-21T22:31:07.043Z,3.40
2018-12-21T22:33:35.805Z,2.97
2018-12-21T22:36:04.551Z,2.47
2018-12-21T22:38:33.273Z,2.80
2018-12-21T22:41:02.007Z,4.07
2018-12-21T22:43:30.790Z,3.97
2018-12-21T22:46:05.756Z,2.73
2018-12-21T22:48:34.492Z,3.77
2018-12-21T22:51:10.453Z,2.43
2018-12-21T22:53:39.140Z,2.83
2018-12-21T22:56:08.752Z,2.70
2018-12-21T22:58:37.499Z,2.27
2018-12-21T23:01:07.483Z,2.77
2018-12-21T23:03:36.318Z,2.00
2018-12-21T23:06:11.243Z,2.00
2018-12-21T23:08:39.975Z,3.13
2018-12-21T23:11:08.827Z,1.77
2018-12-21T23:13:37.588Z,3.90
2018-12-21T23:16:06.482Z,2.47
2018-12-21T23:18:41.641Z,2.80
2018-12-21T23:21:10.111Z,2.43
2018-12-21T23:23:38.703Z,2.70
2018-12-21T23:26:13.744Z,2.40
2018-12-21T23:28:42.447Z,2.60
2018-12-21T23:31:11.164Z,3.47
2018-12-21T23:33:39.908Z,2.40
2018-12-21T23:36:08.672Z,3.33
2018-12-21T23:38:37.370Z,3.70
2018-12-21T23:41:12.332Z,3.60
2018-12-21T23:43:43.427Z,2.00
2018-12-21T23:46:11.775Z,2.50
2018-12-21T23:48:40.578Z,2.67
2018-12-21T23:51:15.551Z,2.70
2018-12-21T23:53:44.348Z,2.43
2018-12-21T23:56:13.959Z,2.83
2018-12-21T23:58:42.670Z,3.30
